sensor_id;sensor_type;location;lat;lon;timestamp;temperature;humidity
7606;DHT22;3844;53.360;9.738;2023-04-30T00:00:12;3.80;93.30
7606;DHT22;3844;53.360;9.738;2023-04-30T00:02:12;3.80;93.30
7606;DHT22;3844;53.360;9.738;2023-04-30T00:06:14;3.80;93.40
7606;DHT22;3844;53.360;9.738;2023-04-30T00:10:16;3.80;93.20
7606;DHT22;3844;53.360;9.738;2023-04-30T00:12:17;3.80;93.00
7606;DHT22;3844;53.360;9.738;2023-04-30T00:16:19;3.70;92.70
7606;DHT22;3844;53.360;9.738;2023-04-30T00:20:20;3.70;92.60
7606;DHT22;3844;53.360;9.738;2023-04-30T00:24:22;3.60;92.40
7606;DHT22;3844;53.360;9.738;2023-04-30T00:30:25;3.40;92.30
7606;DHT22;3844;53.360;9.738;2023-04-30T00:34:26;3.30;92.60
7606;DHT22;3844;53.360;9.738;2023-04-30T00:40:29;3.20;93.20
7606;DHT22;3844;53.360;9.738;2023-04-30T00:44:31;3.10;93.10
7606;DHT22;3844;53.360;9.738;2023-04-30T00:48:33;3.10;93.30
7606;DHT22;3844;53.360;9.738;2023-04-30T00:50:37;3.00;93.40
7606;DHT22;3844;53.360;9.738;2023-04-30T00:54:39;3.00;93.40
7606;DHT22;3844;53.360;9.738;2023-04-30T01:00:42;2.90;93.10
7606;DHT22;3844;53.360;9.738;2023-04-30T01:02:46;2.90;93.30
7606;DHT22;3844;53.360;9.738;2023-04-30T01:06:48;2.80;93.40
7606;DHT22;3844;53.360;9.738;2023-04-30T01:08:49;2.80;93.50
7606;DHT22;3844;53.360;9.738;2023-04-30T01:11:11;2.80;93.40
7606;DHT22;3844;53.360;9.738;2023-04-30T01:13:29;2.80;93.50
7606;DHT22;3844;53.360;9.738;2023-04-30T01:18:21;2.70;93.50
7606;DHT22;3844;53.360;9.738;2023-04-30T01:20:25;2.70;93.40
7606;DHT22;3844;53.360;9.738;2023-04-30T01:29:05;2.50;93.70
7606;DHT22;3844;53.360;9.738;2023-04-30T01:31:13;2.50;93.80
7606;DHT22;3844;53.360;9.738;2023-04-30T01:33:15;2.40;93.80
7606;DHT22;3844;53.360;9.738;2023-04-30T01:35:16;2.40;93.90
7606;DHT22;3844;53.360;9.738;2023-04-30T01:46:32;2.30;93.90
7606;DHT22;3844;53.360;9.738;2023-04-30T01:52:41;2.20;93.80
7606;DHT22;3844;53.360;9.738;2023-04-30T01:54:51;2.20;93.70
7606;DHT22;3844;53.360;9.738;2023-04-30T01:57:06;2.20;93.80
7606;DHT22;3844;53.360;9.738;2023-04-30T01:59:08;2.10;93.70
7606;DHT22;3844;53.360;9.738;2023-04-30T02:01:28;2.10;93.90
7606;DHT22;3844;53.360;9.738;2023-04-30T02:05:30;2.10;94.20
7606;DHT22;3844;53.360;9.738;2023-04-30T02:07:42;2.00;94.30
7606;DHT22;3844;53.360;9.738;2023-04-30T02:11:44;2.00;94.10
7606;DHT22;3844;53.360;9.738;2023-04-30T02:19:48;1.90;94.50
7606;DHT22;3844;53.360;9.738;2023-04-30T02:29:53;1.80;94.80
7606;DHT22;3844;53.360;9.738;2023-04-30T02:31:57;1.70;95.00
7606;DHT22;3844;53.360;9.738;2023-04-30T02:36:00;1.70;95.30
7606;DHT22;3844;53.360;9.738;2023-04-30T02:38:00;1.70;95.50
7606;DHT22;3844;53.360;9.738;2023-04-30T02:42:02;1.70;95.40
7606;DHT22;3844;53.360;9.738;2023-04-30T02:46:05;1.60;95.30
7606;DHT22;3844;53.360;9.738;2023-04-30T02:48:06;1.60;95.40
7606;DHT22;3844;53.360;9.738;2023-04-30T02:50:07;1.60;95.40
7606;DHT22;3844;53.360;9.738;2023-04-30T02:52:07;1.60;95.30
7606;DHT22;3844;53.360;9.738;2023-04-30T02:58:11;1.50;95.20
7606;DHT22;3844;53.360;9.738;2023-04-30T03:00:13;1.50;95.20
7606;DHT22;3844;53.360;9.738;2023-04-30T03:06:15;1.40;95.50
7606;DHT22;3844;53.360;9.738;2023-04-30T03:16:21;1.30;95.70
7606;DHT22;3844;53.360;9.738;2023-04-30T03:18:22;1.30;95.50
7606;DHT22;3844;53.360;9.738;2023-04-30T03:22:24;1.30;95.60
7606;DHT22;3844;53.360;9.738;2023-04-30T03:26:27;1.20;95.70
7606;DHT22;3844;53.360;9.738;2023-04-30T03:28:27;1.20;95.70
7606;DHT22;3844;53.360;9.738;2023-04-30T03:32:29;1.10;95.70
7606;DHT22;3844;53.360;9.738;2023-04-30T03:38:33;1.00;95.70
7606;DHT22;3844;53.360;9.738;2023-04-30T03:46:40;1.00;95.70
7606;DHT22;3844;53.360;9.738;2023-04-30T03:48:41;1.00;95.70
7606;DHT22;3844;53.360;9.738;2023-04-30T03:52:44;1.00;95.70
7606;DHT22;3844;53.360;9.738;2023-04-30T03:54:48;1.00;95.70
7606;DHT22;3844;53.360;9.738;2023-04-30T03:56:48;1.00;95.70
7606;DHT22;3844;53.360;9.738;2023-04-30T04:02:51;1.00;95.70
7606;DHT22;3844;53.360;9.738;2023-04-30T04:06:53;1.00;95.70
7606;DHT22;3844;53.360;9.738;2023-04-30T04:16:58;1.10;95.70
7606;DHT22;3844;53.360;9.738;2023-04-30T04:21:08;1.10;95.70
7606;DHT22;3844;53.360;9.738;2023-04-30T04:25:10;1.20;95.70
7606;DHT22;3844;53.360;9.738;2023-04-30T04:31:13;1.30;95.70
7606;DHT22;3844;53.360;9.738;2023-04-30T04:33:14;1.30;95.70
7606;DHT22;3844;53.360;9.738;2023-04-30T04:35:15;1.30;95.70
7606;DHT22;3844;53.360;9.738;2023-04-30T04:37:17;1.40;95.70
7606;DHT22;3844;53.360;9.738;2023-04-30T04:41:18;1.40;95.70
7606;DHT22;3844;53.360;9.738;2023-04-30T04:43:19;1.50;95.70
7606;DHT22;3844;53.360;9.738;2023-04-30T04:45:20;1.50;95.70
7606;DHT22;3844;53.360;9.738;2023-04-30T04:49:22;1.60;95.70
7606;DHT22;3844;53.360;9.738;2023-04-30T04:51:23;1.60;95.70
7606;DHT22;3844;53.360;9.738;2023-04-30T04:57:26;1.90;95.70
7606;DHT22;3844;53.360;9.738;2023-04-30T05:01:28;2.30;95.70
7606;DHT22;3844;53.360;9.738;2023-04-30T05:03:29;2.50;95.70
7606;DHT22;3844;53.360;9.738;2023-04-30T05:05:30;2.60;95.70
7606;DHT22;3844;53.360;9.738;2023-04-30T05:09:32;3.00;95.70
7606;DHT22;3844;53.360;9.738;2023-04-30T05:13:34;3.40;95.20
7606;DHT22;3844;53.360;9.738;2023-04-30T05:17:35;3.90;94.70
7606;DHT22;3844;53.360;9.738;2023-04-30T05:21:37;4.40;94.10
7606;DHT22;3844;53.360;9.738;2023-04-30T05:23:39;4.60;93.40
7606;DHT22;3844;53.360;9.738;2023-04-30T05:31:43;5.60;91.20
7606;DHT22;3844;53.360;9.738;2023-04-30T05:33:44;5.90;90.50
7606;DHT22;3844;53.360;9.738;2023-04-30T05:37:45;6.20;89.50
7606;DHT22;3844;53.360;9.738;2023-04-30T05:41:47;6.40;89.40
7606;DHT22;3844;53.360;9.738;2023-04-30T05:45:49;7.00;89.00
7606;DHT22;3844;53.360;9.738;2023-04-30T05:51:51;7.70;86.60
7606;DHT22;3844;53.360;9.738;2023-04-30T05:53:52;7.90;86.20
7606;DHT22;3844;53.360;9.738;2023-04-30T05:55:53;8.10;85.90
7606;DHT22;3844;53.360;9.738;2023-04-30T05:59:55;8.50;85.10
7606;DHT22;3844;53.360;9.738;2023-04-30T06:01:55;8.70;84.70
7606;DHT22;3844;53.360;9.738;2023-04-30T06:07:59;9.20;83.30
7606;DHT22;3844;53.360;9.738;2023-04-30T06:12:01;9.60;81.10
7606;DHT22;3844;53.360;9.738;2023-04-30T06:14:06;9.80;82.10
7606;DHT22;3844;53.360;9.738;2023-04-30T06:16:28;10.20;81.20
7606;DHT22;3844;53.360;9.738;2023-04-30T06:18:31;10.60;79.80
7606;DHT22;3844;53.360;9.738;2023-04-30T06:23:05;11.40;78.70
7606;DHT22;3844;53.360;9.738;2023-04-30T06:25:09;11.80;77.60
7606;DHT22;3844;53.360;9.738;2023-04-30T06:27:22;12.20;76.50
7606;DHT22;3844;53.360;9.738;2023-04-30T06:31:24;12.90;72.60
7606;DHT22;3844;53.360;9.738;2023-04-30T06:33:25;13.20;72.40
7606;DHT22;3844;53.360;9.738;2023-04-30T06:37:27;13.50;69.40
7606;DHT22;3844;53.360;9.738;2023-04-30T06:39:28;13.40;69.00
7606;DHT22;3844;53.360;9.738;2023-04-30T06:41:29;13.60;70.20
7606;DHT22;3844;53.360;9.738;2023-04-30T06:43:29;14.00;69.80
7606;DHT22;3844;53.360;9.738;2023-04-30T06:45:33;14.30;67.70
7606;DHT22;3844;53.360;9.738;2023-04-30T06:47:34;14.50;67.40
7606;DHT22;3844;53.360;9.738;2023-04-30T06:51:41;14.80;65.10
7606;DHT22;3844;53.360;9.738;2023-04-30T06:53:44;14.90;64.70
7606;DHT22;3844;53.360;9.738;2023-04-30T06:55:45;15.20;64.70
7606;DHT22;3844;53.360;9.738;2023-04-30T06:57:46;15.50;64.50
7606;DHT22;3844;53.360;9.738;2023-04-30T06:59:47;15.80;62.60
7606;DHT22;3844;53.360;9.738;2023-04-30T07:05:55;15.70;59.00
7606;DHT22;3844;53.360;9.738;2023-04-30T07:07:59;16.00;58.20
7606;DHT22;3844;53.360;9.738;2023-04-30T07:10:00;16.00;56.90
7606;DHT22;3844;53.360;9.738;2023-04-30T07:12:02;16.10;57.70
7606;DHT22;3844;53.360;9.738;2023-04-30T07:14:02;16.30;58.10
7606;DHT22;3844;53.360;9.738;2023-04-30T07:16:05;16.60;56.20
7606;DHT22;3844;53.360;9.738;2023-04-30T07:22:41;16.80;53.20
7606;DHT22;3844;53.360;9.738;2023-04-30T07:24:46;16.60;55.20
7606;DHT22;3844;53.360;9.738;2023-04-30T07:26:47;16.60;55.20
7606;DHT22;3844;53.360;9.738;2023-04-30T07:28:47;16.30;54.50
7606;DHT22;3844;53.360;9.738;2023-04-30T07:30:49;16.30;54.10
7606;DHT22;3844;53.360;9.738;2023-04-30T07:33:05;16.00;52.80
7606;DHT22;3844;53.360;9.738;2023-04-30T07:35:08;15.60;53.00
7606;DHT22;3844;53.360;9.738;2023-04-30T07:37:08;15.80;54.50
7606;DHT22;3844;53.360;9.738;2023-04-30T07:41:11;16.60;52.30
7606;DHT22;3844;53.360;9.738;2023-04-30T07:47:14;18.80;52.50
7606;DHT22;3844;53.360;9.738;2023-04-30T07:51:15;18.90;49.90
7606;DHT22;3844;53.360;9.738;2023-04-30T07:53:16;18.70;50.30
7606;DHT22;3844;53.360;9.738;2023-04-30T07:55:23;18.30;50.00
7606;DHT22;3844;53.360;9.738;2023-04-30T07:57:23;17.70;50.20
7606;DHT22;3844;53.360;9.738;2023-04-30T08:01:36;16.00;52.00
7606;DHT22;3844;53.360;9.738;2023-04-30T08:03:39;15.30;54.90
7606;DHT22;3844;53.360;9.738;2023-04-30T08:09:46;15.00;55.90
7606;DHT22;3844;53.360;9.738;2023-04-30T08:11:47;15.70;55.30
7606;DHT22;3844;53.360;9.738;2023-04-30T08:14:06;16.40;54.80
7606;DHT22;3844;53.360;9.738;2023-04-30T08:16:07;17.40;52.70
7606;DHT22;3844;53.360;9.738;2023-04-30T08:18:08;18.00;50.00
7606;DHT22;3844;53.360;9.738;2023-04-30T08:20:09;18.60;50.70
7606;DHT22;3844;53.360;9.738;2023-04-30T08:24:11;19.40;49.20
7606;DHT22;3844;53.360;9.738;2023-04-30T08:28:12;20.40;47.20
7606;DHT22;3844;53.360;9.738;2023-04-30T08:32:17;20.30;45.60
7606;DHT22;3844;53.360;9.738;2023-04-30T08:34:21;20.60;47.40
7606;DHT22;3844;53.360;9.738;2023-04-30T08:36:22;20.60;45.10
7606;DHT22;3844;53.360;9.738;2023-04-30T08:38:28;20.50;46.20
7606;DHT22;3844;53.360;9.738;2023-04-30T08:40:29;19.90;46.20
7606;DHT22;3844;53.360;9.738;2023-04-30T08:43:07;18.90;47.20
7606;DHT22;3844;53.360;9.738;2023-04-30T08:45:10;18.60;49.40
7606;DHT22;3844;53.360;9.738;2023-04-30T08:47:11;19.00;48.40
7606;DHT22;3844;53.360;9.738;2023-04-30T08:49:20;19.50;48.80
7606;DHT22;3844;53.360;9.738;2023-04-30T08:51:21;19.80;46.50
7606;DHT22;3844;53.360;9.738;2023-04-30T08:53:23;19.60;46.10
7606;DHT22;3844;53.360;9.738;2023-04-30T08:55:26;19.90;47.10
7606;DHT22;3844;53.360;9.738;2023-04-30T08:57:27;20.10;45.60
7606;DHT22;3844;53.360;9.738;2023-04-30T09:01:29;20.70;45.20
7606;DHT22;3844;53.360;9.738;2023-04-30T09:03:30;20.80;44.20
7606;DHT22;3844;53.360;9.738;2023-04-30T09:05:31;20.50;43.70
7606;DHT22;3844;53.360;9.738;2023-04-30T09:07:32;20.40;45.90
7606;DHT22;3844;53.360;9.738;2023-04-30T09:09:38;20.00;45.00
7606;DHT22;3844;53.360;9.738;2023-04-30T09:11:39;19.60;46.50
7606;DHT22;3844;53.360;9.738;2023-04-30T09:13:40;19.60;46.70
7606;DHT22;3844;53.360;9.738;2023-04-30T09:19:47;20.60;45.80
7606;DHT22;3844;53.360;9.738;2023-04-30T09:21:55;20.70;44.00
7606;DHT22;3844;53.360;9.738;2023-04-30T09:24:02;20.70;45.50
7606;DHT22;3844;53.360;9.738;2023-04-30T09:26:02;20.70;44.80
7606;DHT22;3844;53.360;9.738;2023-04-30T09:28:10;20.90;45.80
7606;DHT22;3844;53.360;9.738;2023-04-30T09:30:29;21.00;44.50
7606;DHT22;3844;53.360;9.738;2023-04-30T09:32:31;21.30;45.30
7606;DHT22;3844;53.360;9.738;2023-04-30T09:34:34;21.30;44.20
7606;DHT22;3844;53.360;9.738;2023-04-30T09:36:35;21.70;44.50
7606;DHT22;3844;53.360;9.738;2023-04-30T09:40:39;22.10;43.20
7606;DHT22;3844;53.360;9.738;2023-04-30T09:44:41;21.70;43.30
7606;DHT22;3844;53.360;9.738;2023-04-30T09:46:43;20.60;44.00
7606;DHT22;3844;53.360;9.738;2023-04-30T09:50:45;20.20;47.80
7606;DHT22;3844;53.360;9.738;2023-04-30T09:53:08;20.90;45.70
7606;DHT22;3844;53.360;9.738;2023-04-30T09:55:09;21.60;45.50
7606;DHT22;3844;53.360;9.738;2023-04-30T09:57:12;21.60;45.20
7606;DHT22;3844;53.360;9.738;2023-04-30T09:59:13;21.40;44.60
7606;DHT22;3844;53.360;9.738;2023-04-30T10:01:16;21.40;44.90
7606;DHT22;3844;53.360;9.738;2023-04-30T10:03:18;21.10;44.60
7606;DHT22;3844;53.360;9.738;2023-04-30T10:05:20;21.50;43.80
7606;DHT22;3844;53.360;9.738;2023-04-30T10:07:23;21.80;43.80
7606;DHT22;3844;53.360;9.738;2023-04-30T10:09:31;21.50;46.10
7606;DHT22;3844;53.360;9.738;2023-04-30T10:11:37;22.10;44.90
7606;DHT22;3844;53.360;9.738;2023-04-30T10:15:57;22.60;43.10
7606;DHT22;3844;53.360;9.738;2023-04-30T10:18:04;22.70;43.50
7606;DHT22;3844;53.360;9.738;2023-04-30T10:20:06;22.30;44.40
7606;DHT22;3844;53.360;9.738;2023-04-30T10:22:09;22.10;42.40
7606;DHT22;3844;53.360;9.738;2023-04-30T10:24:12;22.10;43.10
7606;DHT22;3844;53.360;9.738;2023-04-30T10:26:14;21.90;41.50
7606;DHT22;3844;53.360;9.738;2023-04-30T10:28:19;21.30;44.30
7606;DHT22;3844;53.360;9.738;2023-04-30T10:30:21;21.70;44.80
7606;DHT22;3844;53.360;9.738;2023-04-30T10:32:23;22.00;44.40
7606;DHT22;3844;53.360;9.738;2023-04-30T10:34:30;22.40;44.20
7606;DHT22;3844;53.360;9.738;2023-04-30T10:36:41;22.50;42.90
7606;DHT22;3844;53.360;9.738;2023-04-30T10:38:44;22.30;43.10
7606;DHT22;3844;53.360;9.738;2023-04-30T10:40:45;21.70;41.20
7606;DHT22;3844;53.360;9.738;2023-04-30T10:43:01;21.60;43.70
7606;DHT22;3844;53.360;9.738;2023-04-30T10:45:09;21.90;43.20
7606;DHT22;3844;53.360;9.738;2023-04-30T10:47:10;22.10;42.80
7606;DHT22;3844;53.360;9.738;2023-04-30T10:49:14;22.20;43.80
7606;DHT22;3844;53.360;9.738;2023-04-30T10:51:16;22.40;44.10
7606;DHT22;3844;53.360;9.738;2023-04-30T10:53:18;22.90;42.10
7606;DHT22;3844;53.360;9.738;2023-04-30T10:55:20;23.60;40.80
7606;DHT22;3844;53.360;9.738;2023-04-30T10:57:21;24.20;40.10
7606;DHT22;3844;53.360;9.738;2023-04-30T10:59:22;24.00;40.50
7606;DHT22;3844;53.360;9.738;2023-04-30T11:03:28;23.80;42.10
7606;DHT22;3844;53.360;9.738;2023-04-30T11:05:37;24.00;40.20
7606;DHT22;3844;53.360;9.738;2023-04-30T11:07:50;23.90;41.50
7606;DHT22;3844;53.360;9.738;2023-04-30T11:09:56;24.00;40.00
7606;DHT22;3844;53.360;9.738;2023-04-30T11:12:13;23.30;39.80
7606;DHT22;3844;53.360;9.738;2023-04-30T11:14:19;23.00;40.60
7606;DHT22;3844;53.360;9.738;2023-04-30T11:16:29;22.80;41.80
7606;DHT22;3844;53.360;9.738;2023-04-30T11:18:45;22.40;43.30
7606;DHT22;3844;53.360;9.738;2023-04-30T11:20:49;22.80;44.20
7606;DHT22;3844;53.360;9.738;2023-04-30T11:23:14;23.80;42.20
7606;DHT22;3844;53.360;9.738;2023-04-30T11:25:18;24.60;40.20
7606;DHT22;3844;53.360;9.738;2023-04-30T11:27:24;24.30;40.40
7606;DHT22;3844;53.360;9.738;2023-04-30T11:29:25;24.30;39.70
7606;DHT22;3844;53.360;9.738;2023-04-30T11:31:33;24.20;39.00
7606;DHT22;3844;53.360;9.738;2023-04-30T11:33:34;24.10;40.30
7606;DHT22;3844;53.360;9.738;2023-04-30T11:35:35;23.00;40.40
7606;DHT22;3844;53.360;9.738;2023-04-30T11:37:41;23.40;40.70
7606;DHT22;3844;53.360;9.738;2023-04-30T11:39:47;23.90;41.10
7606;DHT22;3844;53.360;9.738;2023-04-30T11:41:48;24.10;40.70
7606;DHT22;3844;53.360;9.738;2023-04-30T11:43:48;24.60;39.50
7606;DHT22;3844;53.360;9.738;2023-04-30T11:46:11;24.90;39.10
7606;DHT22;3844;53.360;9.738;2023-04-30T11:48:12;24.70;37.60
7606;DHT22;3844;53.360;9.738;2023-04-30T11:50:21;24.00;38.80
7606;DHT22;3844;53.360;9.738;2023-04-30T11:52:28;23.70;39.80
7606;DHT22;3844;53.360;9.738;2023-04-30T11:54:32;23.00;40.10
7606;DHT22;3844;53.360;9.738;2023-04-30T11:56:37;22.50;40.20
7606;DHT22;3844;53.360;9.738;2023-04-30T12:59:20;23.90;40.00
7606;DHT22;3844;53.360;9.738;2023-04-30T13:01:21;23.90;39.90
7606;DHT22;3844;53.360;9.738;2023-04-30T13:03:23;23.70;39.10
7606;DHT22;3844;53.360;9.738;2023-04-30T13:05:24;23.50;39.80
7606;DHT22;3844;53.360;9.738;2023-04-30T13:07:25;23.40;39.80
7606;DHT22;3844;53.360;9.738;2023-04-30T13:09:26;23.50;42.00
7606;DHT22;3844;53.360;9.738;2023-04-30T13:11:26;23.80;41.40
7606;DHT22;3844;53.360;9.738;2023-04-30T13:13:27;23.60;41.00
7606;DHT22;3844;53.360;9.738;2023-04-30T13:15:28;23.50;41.30
7606;DHT22;3844;53.360;9.738;2023-04-30T13:17:29;23.00;40.90
7606;DHT22;3844;53.360;9.738;2023-04-30T13:19:30;22.70;42.00
7606;DHT22;3844;53.360;9.738;2023-04-30T13:21:31;22.40;43.30
7606;DHT22;3844;53.360;9.738;2023-04-30T13:23:32;22.30;41.90
7606;DHT22;3844;53.360;9.738;2023-04-30T13:25:34;22.30;41.20
7606;DHT22;3844;53.360;9.738;2023-04-30T13:27:34;22.30;42.40
7606;DHT22;3844;53.360;9.738;2023-04-30T13:29:35;22.50;41.30
7606;DHT22;3844;53.360;9.738;2023-04-30T13:31:36;22.60;42.10
7606;DHT22;3844;53.360;9.738;2023-04-30T13:33:37;22.50;41.60
7606;DHT22;3844;53.360;9.738;2023-04-30T13:35:38;22.60;42.80
7606;DHT22;3844;53.360;9.738;2023-04-30T13:37:38;22.60;42.70
7606;DHT22;3844;53.360;9.738;2023-04-30T13:39:39;22.80;41.90
7606;DHT22;3844;53.360;9.738;2023-04-30T13:41:40;22.60;40.70
7606;DHT22;3844;53.360;9.738;2023-04-30T13:43:41;22.60;43.00
7606;DHT22;3844;53.360;9.738;2023-04-30T13:45:43;22.80;43.90
7606;DHT22;3844;53.360;9.738;2023-04-30T13:47:43;22.90;44.80
7606;DHT22;3844;53.360;9.738;2023-04-30T13:49:44;22.80;41.90
7606;DHT22;3844;53.360;9.738;2023-04-30T13:51:45;21.90;41.90
7606;DHT22;3844;53.360;9.738;2023-04-30T13:53:46;21.70;43.80
7606;DHT22;3844;53.360;9.738;2023-04-30T13:55:46;21.90;43.30
7606;DHT22;3844;53.360;9.738;2023-04-30T13:57:47;21.90;42.90
7606;DHT22;3844;53.360;9.738;2023-04-30T13:59:49;21.70;44.40
7606;DHT22;3844;53.360;9.738;2023-04-30T14:01:49;21.40;42.50
7606;DHT22;3844;53.360;9.738;2023-04-30T14:03:50;20.50;42.20
7606;DHT22;3844;53.360;9.738;2023-04-30T14:05:51;20.10;45.70
7606;DHT22;3844;53.360;9.738;2023-04-30T14:09:52;20.50;45.20
7606;DHT22;3844;53.360;9.738;2023-04-30T14:11:54;20.40;45.50
7606;DHT22;3844;53.360;9.738;2023-04-30T14:13:57;20.40;46.70
7606;DHT22;3844;53.360;9.738;2023-04-30T14:15:58;20.60;46.90
7606;DHT22;3844;53.360;9.738;2023-04-30T14:17:58;20.60;47.00
7606;DHT22;3844;53.360;9.738;2023-04-30T14:19:59;20.50;46.80
7606;DHT22;3844;53.360;9.738;2023-04-30T14:22:00;20.30;46.30
7606;DHT22;3844;53.360;9.738;2023-04-30T14:24:01;20.10;45.50
7606;DHT22;3844;53.360;9.738;2023-04-30T14:26:02;19.80;48.00
7606;DHT22;3844;53.360;9.738;2023-04-30T14:28:03;19.50;48.20
7606;DHT22;3844;53.360;9.738;2023-04-30T14:30:04;19.60;48.00
7606;DHT22;3844;53.360;9.738;2023-04-30T14:32:05;19.60;47.60
7606;DHT22;3844;53.360;9.738;2023-04-30T14:34:06;19.00;46.70
7606;DHT22;3844;53.360;9.738;2023-04-30T14:36:07;18.50;48.40
7606;DHT22;3844;53.360;9.738;2023-04-30T14:38:08;18.30;48.80
7606;DHT22;3844;53.360;9.738;2023-04-30T14:40:09;18.30;49.40
7606;DHT22;3844;53.360;9.738;2023-04-30T14:42:11;18.40;49.30
7606;DHT22;3844;53.360;9.738;2023-04-30T14:44:11;18.30;49.70
7606;DHT22;3844;53.360;9.738;2023-04-30T14:46:13;18.40;51.30
7606;DHT22;3844;53.360;9.738;2023-04-30T14:48:14;18.90;50.10
7606;DHT22;3844;53.360;9.738;2023-04-30T14:50:15;19.40;48.80
7606;DHT22;3844;53.360;9.738;2023-04-30T14:52:17;19.50;46.80
7606;DHT22;3844;53.360;9.738;2023-04-30T14:54:19;19.10;45.90
7606;DHT22;3844;53.360;9.738;2023-04-30T14:56:20;18.70;48.40
7606;DHT22;3844;53.360;9.738;2023-04-30T14:58:21;18.50;49.10
7606;DHT22;3844;53.360;9.738;2023-04-30T15:00:22;18.50;49.20
7606;DHT22;3844;53.360;9.738;2023-04-30T15:02:23;18.40;47.80
7606;DHT22;3844;53.360;9.738;2023-04-30T15:04:23;18.20;48.90
7606;DHT22;3844;53.360;9.738;2023-04-30T15:06:24;17.90;50.00
7606;DHT22;3844;53.360;9.738;2023-04-30T15:08:26;17.70;48.30
7606;DHT22;3844;53.360;9.738;2023-04-30T15:10:26;17.20;50.20
7606;DHT22;3844;53.360;9.738;2023-04-30T15:12:27;16.80;52.00
7606;DHT22;3844;53.360;9.738;2023-04-30T15:14:28;16.60;51.70
7606;DHT22;3844;53.360;9.738;2023-04-30T15:16:29;16.40;53.20
7606;DHT22;3844;53.360;9.738;2023-04-30T15:18:30;16.40;54.20
7606;DHT22;3844;53.360;9.738;2023-04-30T15:20:31;16.50;53.10
7606;DHT22;3844;53.360;9.738;2023-04-30T15:22:32;16.60;52.90
7606;DHT22;3844;53.360;9.738;2023-04-30T15:24:33;16.70;53.30
7606;DHT22;3844;53.360;9.738;2023-04-30T15:26:33;16.80;53.70
7606;DHT22;3844;53.360;9.738;2023-04-30T15:28:34;16.90;52.90
7606;DHT22;3844;53.360;9.738;2023-04-30T15:30:36;17.10;53.00
7606;DHT22;3844;53.360;9.738;2023-04-30T15:32:37;17.10;51.90
7606;DHT22;3844;53.360;9.738;2023-04-30T15:34:38;17.10;52.20
7606;DHT22;3844;53.360;9.738;2023-04-30T15:36:39;17.20;52.00
7606;DHT22;3844;53.360;9.738;2023-04-30T15:40:41;16.80;52.60
7606;DHT22;3844;53.360;9.738;2023-04-30T15:42:42;16.70;51.90
7606;DHT22;3844;53.360;9.738;2023-04-30T15:44:43;16.50;52.10
7606;DHT22;3844;53.360;9.738;2023-04-30T15:46:47;16.50;52.50
7606;DHT22;3844;53.360;9.738;2023-04-30T15:48:49;16.50;52.40
7606;DHT22;3844;53.360;9.738;2023-04-30T15:50:54;16.70;52.80
7606;DHT22;3844;53.360;9.738;2023-04-30T15:52:56;16.90;51.60
7606;DHT22;3844;53.360;9.738;2023-04-30T15:54:57;17.00;52.10
7606;DHT22;3844;53.360;9.738;2023-04-30T15:56:57;17.10;51.80
7606;DHT22;3844;53.360;9.738;2023-04-30T15:58:59;17.10;51.90
7606;DHT22;3844;53.360;9.738;2023-04-30T16:01:00;17.10;51.70
7606;DHT22;3844;53.360;9.738;2023-04-30T16:03:01;17.00;52.20
7606;DHT22;3844;53.360;9.738;2023-04-30T16:05:02;17.10;51.90
7606;DHT22;3844;53.360;9.738;2023-04-30T16:07:03;17.00;51.00
7606;DHT22;3844;53.360;9.738;2023-04-30T16:09:04;16.90;51.20
7606;DHT22;3844;53.360;9.738;2023-04-30T16:11:07;16.90;50.90
7606;DHT22;3844;53.360;9.738;2023-04-30T16:13:08;16.70;51.40
7606;DHT22;3844;53.360;9.738;2023-04-30T16:15:09;16.70;52.20
7606;DHT22;3844;53.360;9.738;2023-04-30T16:17:10;16.70;50.90
7606;DHT22;3844;53.360;9.738;2023-04-30T16:19:11;16.70;50.70
7606;DHT22;3844;53.360;9.738;2023-04-30T16:21:12;16.40;51.00
7606;DHT22;3844;53.360;9.738;2023-04-30T16:23:13;16.10;51.50
7606;DHT22;3844;53.360;9.738;2023-04-30T16:25:14;16.00;53.00
7606;DHT22;3844;53.360;9.738;2023-04-30T16:27:15;16.10;53.10
7606;DHT22;3844;53.360;9.738;2023-04-30T16:29:16;16.20;53.50
7606;DHT22;3844;53.360;9.738;2023-04-30T16:31:16;16.30;52.90
7606;DHT22;3844;53.360;9.738;2023-04-30T16:33:21;16.40;52.40
7606;DHT22;3844;53.360;9.738;2023-04-30T16:35:21;16.50;52.40
7606;DHT22;3844;53.360;9.738;2023-04-30T16:37:22;16.50;53.00
7606;DHT22;3844;53.360;9.738;2023-04-30T16:39:23;16.50;52.20
7606;DHT22;3844;53.360;9.738;2023-04-30T16:41:23;16.50;51.90
7606;DHT22;3844;53.360;9.738;2023-04-30T16:43:25;16.30;50.20
7606;DHT22;3844;53.360;9.738;2023-04-30T16:45:26;15.90;51.80
7606;DHT22;3844;53.360;9.738;2023-04-30T16:47:28;15.80;52.90
7606;DHT22;3844;53.360;9.738;2023-04-30T16:49:29;15.70;52.40
7606;DHT22;3844;53.360;9.738;2023-04-30T16:51:30;15.60;52.50
7606;DHT22;3844;53.360;9.738;2023-04-30T16:53:32;15.50;52.20
7606;DHT22;3844;53.360;9.738;2023-04-30T16:55:33;15.30;52.90
7606;DHT22;3844;53.360;9.738;2023-04-30T16:57:34;15.20;54.20
7606;DHT22;3844;53.360;9.738;2023-04-30T16:59:35;15.20;54.20
7606;DHT22;3844;53.360;9.738;2023-04-30T17:01:35;15.30;54.60
7606;DHT22;3844;53.360;9.738;2023-04-30T17:03:36;15.30;55.30
7606;DHT22;3844;53.360;9.738;2023-04-30T17:05:37;15.30;55.00
7606;DHT22;3844;53.360;9.738;2023-04-30T17:07:37;15.20;55.60
7606;DHT22;3844;53.360;9.738;2023-04-30T17:09:38;15.10;55.60
7606;DHT22;3844;53.360;9.738;2023-04-30T17:11:39;15.10;55.80
7606;DHT22;3844;53.360;9.738;2023-04-30T17:13:39;15.10;55.40
7606;DHT22;3844;53.360;9.738;2023-04-30T17:15:40;15.20;55.70
7606;DHT22;3844;53.360;9.738;2023-04-30T17:17:42;15.20;55.60
7606;DHT22;3844;53.360;9.738;2023-04-30T17:19:43;15.10;55.70
7606;DHT22;3844;53.360;9.738;2023-04-30T17:21:43;15.10;55.00
7606;DHT22;3844;53.360;9.738;2023-04-30T17:23:44;15.00;54.70
7606;DHT22;3844;53.360;9.738;2023-04-30T17:25:46;15.00;55.60
7606;DHT22;3844;53.360;9.738;2023-04-30T17:27:47;14.90;55.70
7606;DHT22;3844;53.360;9.738;2023-04-30T17:31:50;14.80;56.40
7606;DHT22;3844;53.360;9.738;2023-04-30T17:33:50;14.60;56.60
7606;DHT22;3844;53.360;9.738;2023-04-30T17:35:51;14.60;57.50
7606;DHT22;3844;53.360;9.738;2023-04-30T17:37:52;14.50;57.50
7606;DHT22;3844;53.360;9.738;2023-04-30T17:39:53;14.50;58.00
7606;DHT22;3844;53.360;9.738;2023-04-30T17:41:54;14.40;57.90
7606;DHT22;3844;53.360;9.738;2023-04-30T17:43:55;14.30;58.40
7606;DHT22;3844;53.360;9.738;2023-04-30T17:45:56;14.20;58.50
7606;DHT22;3844;53.360;9.738;2023-04-30T17:47:57;14.20;58.60
7606;DHT22;3844;53.360;9.738;2023-04-30T17:49:58;14.10;59.30
7606;DHT22;3844;53.360;9.738;2023-04-30T17:51:59;14.00;59.20
7606;DHT22;3844;53.360;9.738;2023-04-30T17:54:00;13.90;59.70
7606;DHT22;3844;53.360;9.738;2023-04-30T17:56:01;13.80;59.80
7606;DHT22;3844;53.360;9.738;2023-04-30T17:58:02;13.80;60.00
7606;DHT22;3844;53.360;9.738;2023-04-30T18:00:04;13.70;60.50
7606;DHT22;3844;53.360;9.738;2023-04-30T18:02:06;13.60;61.00
7606;DHT22;3844;53.360;9.738;2023-04-30T18:04:08;13.50;61.10
7606;DHT22;3844;53.360;9.738;2023-04-30T18:06:09;13.50;61.50
7606;DHT22;3844;53.360;9.738;2023-04-30T18:08:09;13.40;61.80
7606;DHT22;3844;53.360;9.738;2023-04-30T18:10:10;13.30;61.60
7606;DHT22;3844;53.360;9.738;2023-04-30T18:12:11;13.30;62.10
7606;DHT22;3844;53.360;9.738;2023-04-30T18:14:12;13.30;62.60
7606;DHT22;3844;53.360;9.738;2023-04-30T18:16:12;13.20;62.80
7606;DHT22;3844;53.360;9.738;2023-04-30T18:18:13;13.20;63.20
7606;DHT22;3844;53.360;9.738;2023-04-30T18:20:15;13.10;63.50